sensor_id;sensor_type;location;lat;lon;timestamp;P1;durP1;ratioP1;P2;durP2;ratioP2
55222;SDS011;41090;48.632;12.428;2022-07-10T00:01:41;6.17;;;5.67;;
55222;SDS011;41090;48.632;12.428;2022-07-10T00:04:06;6.03;;;5.43;;
55222;SDS011;41090;48.632;12.428;2022-07-10T00:06:31;5.70;;;5.30;;
55222;SDS011;41090;48.632;12.428;2022-07-10T00:08:57;6.40;;;5.23;;
55222;SDS011;41090;48.632;12.428;2022-07-10T00:11:22;5.50;;;5.10;;
55222;SDS011;41090;48.632;12.428;2022-07-10T00:13:47;6.23;;;5.63;;
55222;SDS011;41090;48.632;12.428;2022-07-10T00:16:12;5.70;;;5.30;;
55222;SDS011;41090;48.632;12.428;2022-07-10T00:18:38;5.40;;;5.00;;
55222;SDS011;41090;48.632;12.428;2022-07-10T00:21:03;6.23;;;5.73;;
55222;SDS011;41090;48.632;12.428;2022-07-10T00:23:28;6.00;;;5.50;;
55222;SDS011;41090;48.632;12.428;2022-07-10T00:25:53;6.47;;;5.87;;
55222;SDS011;41090;48.632;12.428;2022-07-10T00:28:19;5.87;;;5.40;;
55222;SDS011;41090;48.632;12.428;2022-07-10T00:30:44;6.07;;;5.50;;
55222;SDS011;41090;48.632;12.428;2022-07-10T00:33:09;6.27;;;5.33;;
55222;SDS011;41090;48.632;12.428;2022-07-10T00:35:35;6.70;;;6.10;;
55222;SDS011;41090;48.632;12.428;2022-07-10T00:38:00;5.87;;;5.37;;
55222;SDS011;41090;48.632;12.428;2022-07-10T00:40:25;6.03;;;5.53;;
55222;SDS011;41090;48.632;12.428;2022-07-10T00:42:50;5.47;;;5.07;;
55222;SDS011;41090;48.632;12.428;2022-07-10T00:45:16;5.60;;;5.20;;
55222;SDS011;41090;48.632;12.428;2022-07-10T00:47:41;5.27;;;4.77;;
55222;SDS011;41090;48.632;12.428;2022-07-10T00:50:06;6.00;;;5.40;;
55222;SDS011;41090;48.632;12.428;2022-07-10T00:52:32;5.60;;;5.10;;
55222;SDS011;41090;48.632;12.428;2022-07-10T00:55:00;5.40;;;4.90;;
55222;SDS011;41090;48.632;12.428;2022-07-10T00:57:26;5.87;;;5.37;;
55222;SDS011;41090;48.632;12.428;2022-07-10T00:59:51;5.77;;;5.20;;
55222;SDS011;41090;48.632;12.428;2022-07-10T01:02:17;5.83;;;5.27;;
55222;SDS011;41090;48.632;12.428;2022-07-10T01:04:42;5.10;;;4.70;;
55222;SDS011;41090;48.632;12.428;2022-07-10T01:07:07;5.33;;;4.93;;
55222;SDS011;41090;48.632;12.428;2022-07-10T01:09:33;5.97;;;5.20;;
55222;SDS011;41090;48.632;12.428;2022-07-10T01:12:02;5.80;;;4.73;;
55222;SDS011;41090;48.632;12.428;2022-07-10T01:14:28;5.10;;;4.70;;
55222;SDS011;41090;48.632;12.428;2022-07-10T01:16:53;5.13;;;4.73;;
55222;SDS011;41090;48.632;12.428;2022-07-10T01:19:18;6.07;;;4.63;;
55222;SDS011;41090;48.632;12.428;2022-07-10T01:21:44;4.67;;;4.27;;
55222;SDS011;41090;48.632;12.428;2022-07-10T01:24:09;4.47;;;4.07;;
55222;SDS011;41090;48.632;12.428;2022-07-10T01:26:35;4.87;;;4.47;;
55222;SDS011;41090;48.632;12.428;2022-07-10T01:29:05;5.17;;;4.77;;
55222;SDS011;41090;48.632;12.428;2022-07-10T01:31:30;5.10;;;4.60;;
55222;SDS011;41090;48.632;12.428;2022-07-10T01:33:56;4.70;;;4.30;;
55222;SDS011;41090;48.632;12.428;2022-07-10T01:36:21;7.13;;;4.80;;
55222;SDS011;41090;48.632;12.428;2022-07-10T01:38:46;5.33;;;4.83;;
55222;SDS011;41090;48.632;12.428;2022-07-10T01:41:12;4.87;;;4.40;;
55222;SDS011;41090;48.632;12.428;2022-07-10T01:43:37;4.53;;;4.10;;
55222;SDS011;41090;48.632;12.428;2022-07-10T01:46:07;4.70;;;4.30;;
55222;SDS011;41090;48.632;12.428;2022-07-10T01:48:32;6.20;;;4.20;;
55222;SDS011;41090;48.632;12.428;2022-07-10T01:50:57;4.53;;;4.23;;
55222;SDS011;41090;48.632;12.428;2022-07-10T01:53:23;4.60;;;4.27;;
55222;SDS011;41090;48.632;12.428;2022-07-10T01:55:48;5.20;;;4.70;;
55222;SDS011;41090;48.632;12.428;2022-07-10T01:58:13;4.80;;;4.30;;
55222;SDS011;41090;48.632;12.428;2022-07-10T02:00:39;5.60;;;4.70;;
55222;SDS011;41090;48.632;12.428;2022-07-10T02:03:04;5.20;;;4.80;;
55222;SDS011;41090;48.632;12.428;2022-07-10T02:05:47;6.00;;;4.80;;
55222;SDS011;41090;48.632;12.428;2022-07-10T02:08:13;4.70;;;4.30;;
55222;SDS011;41090;48.632;12.428;2022-07-10T02:10:38;4.50;;;4.10;;
55222;SDS011;41090;48.632;12.428;2022-07-10T02:13:03;5.83;;;5.23;;
55222;SDS011;41090;48.632;12.428;2022-07-10T02:15:29;5.50;;;5.00;;
55222;SDS011;41090;48.632;12.428;2022-07-10T02:17:54;6.43;;;5.80;;
55222;SDS011;41090;48.632;12.428;2022-07-10T02:20:19;7.23;;;6.40;;
55222;SDS011;41090;48.632;12.428;2022-07-10T02:22:44;6.90;;;6.17;;
55222;SDS011;41090;48.632;12.428;2022-07-10T02:25:09;5.90;;;5.50;;
55222;SDS011;41090;48.632;12.428;2022-07-10T02:27:35;7.83;;;6.00;;
55222;SDS011;41090;48.632;12.428;2022-07-10T02:30:00;6.97;;;6.27;;
55222;SDS011;41090;48.632;12.428;2022-07-10T02:32:25;5.93;;;5.43;;
55222;SDS011;41090;48.632;12.428;2022-07-10T02:34:51;7.50;;;6.03;;
55222;SDS011;41090;48.632;12.428;2022-07-10T02:37:16;7.27;;;6.13;;
55222;SDS011;41090;48.632;12.428;2022-07-10T02:39:42;8.67;;;6.50;;
55222;SDS011;41090;48.632;12.428;2022-07-10T02:42:07;7.00;;;6.40;;
55222;SDS011;41090;48.632;12.428;2022-07-10T02:44:32;9.90;;;7.10;;
55222;SDS011;41090;48.632;12.428;2022-07-10T02:46:57;8.67;;;6.60;;
55222;SDS011;41090;48.632;12.428;2022-07-10T02:49:22;7.93;;;6.50;;
55222;SDS011;41090;48.632;12.428;2022-07-10T02:51:48;6.30;;;5.70;;
55222;SDS011;41090;48.632;12.428;2022-07-10T02:54:13;6.80;;;6.20;;
55222;SDS011;41090;48.632;12.428;2022-07-10T02:56:38;9.03;;;6.50;;
55222;SDS011;41090;48.632;12.428;2022-07-10T02:59:04;7.73;;;6.27;;
55222;SDS011;41090;48.632;12.428;2022-07-10T03:01:31;8.03;;;6.13;;
55222;SDS011;41090;48.632;12.428;2022-07-10T03:03:56;6.47;;;5.87;;
55222;SDS011;41090;48.632;12.428;2022-07-10T03:06:21;8.70;;;7.10;;
55222;SDS011;41090;48.632;12.428;2022-07-10T03:08:47;7.33;;;6.63;;
55222;SDS011;41090;48.632;12.428;2022-07-10T03:11:12;7.23;;;5.83;;
55222;SDS011;41090;48.632;12.428;2022-07-10T03:13:37;7.67;;;6.80;;
55222;SDS011;41090;48.632;12.428;2022-07-10T03:16:02;9.27;;;6.23;;
55222;SDS011;41090;48.632;12.428;2022-07-10T03:18:27;8.90;;;7.00;;
55222;SDS011;41090;48.632;12.428;2022-07-10T03:20:53;8.57;;;7.10;;
55222;SDS011;41090;48.632;12.428;2022-07-10T03:23:18;8.77;;;7.20;;
55222;SDS011;41090;48.632;12.428;2022-07-10T03:25:44;7.77;;;6.97;;
55222;SDS011;41090;48.632;12.428;2022-07-10T03:28:10;9.00;;;6.87;;
55222;SDS011;41090;48.632;12.428;2022-07-10T03:30:35;8.97;;;7.17;;
55222;SDS011;41090;48.632;12.428;2022-07-10T03:33:00;11.00;;;7.30;;
55222;SDS011;41090;48.632;12.428;2022-07-10T03:35:25;8.20;;;6.80;;
55222;SDS011;41090;48.632;12.428;2022-07-10T03:37:51;7.60;;;7.00;;
55222;SDS011;41090;48.632;12.428;2022-07-10T03:40:16;8.77;;;6.83;;
55222;SDS011;41090;48.632;12.428;2022-07-10T03:42:41;8.13;;;7.17;;
55222;SDS011;41090;48.632;12.428;2022-07-10T03:45:07;8.10;;;7.30;;
55222;SDS011;41090;48.632;12.428;2022-07-10T03:47:32;9.40;;;7.10;;
55222;SDS011;41090;48.632;12.428;2022-07-10T03:49:57;7.70;;;7.00;;
55222;SDS011;41090;48.632;12.428;2022-07-10T03:52:22;9.33;;;7.10;;
55222;SDS011;41090;48.632;12.428;2022-07-10T03:54:47;9.33;;;6.70;;
55222;SDS011;41090;48.632;12.428;2022-07-10T03:57:13;7.43;;;6.43;;
55222;SDS011;41090;48.632;12.428;2022-07-10T03:59:57;7.47;;;6.67;;
55222;SDS011;41090;48.632;12.428;2022-07-10T04:02:22;9.33;;;6.13;;
55222;SDS011;41090;48.632;12.428;2022-07-10T04:04:47;7.03;;;5.80;;
55222;SDS011;41090;48.632;12.428;2022-07-10T04:07:13;7.17;;;6.43;;
55222;SDS011;41090;48.632;12.428;2022-07-10T04:09:38;8.47;;;6.13;;
55222;SDS011;41090;48.632;12.428;2022-07-10T04:12:03;9.60;;;5.93;;
55222;SDS011;41090;48.632;12.428;2022-07-10T04:14:29;6.13;;;5.63;;
55222;SDS011;41090;48.632;12.428;2022-07-10T04:16:54;9.13;;;6.00;;
55222;SDS011;41090;48.632;12.428;2022-07-10T04:19:19;6.73;;;5.50;;
55222;SDS011;41090;48.632;12.428;2022-07-10T04:21:46;8.10;;;5.57;;
55222;SDS011;41090;48.632;12.428;2022-07-10T04:24:11;6.60;;;5.87;;
55222;SDS011;41090;48.632;12.428;2022-07-10T04:26:37;6.83;;;5.40;;
55222;SDS011;41090;48.632;12.428;2022-07-10T04:29:03;10.00;;;6.10;;
55222;SDS011;41090;48.632;12.428;2022-07-10T04:31:28;7.07;;;5.90;;
55222;SDS011;41090;48.632;12.428;2022-07-10T04:33:53;6.17;;;5.57;;
55222;SDS011;41090;48.632;12.428;2022-07-10T04:36:22;8.10;;;5.40;;
55222;SDS011;41090;48.632;12.428;2022-07-10T04:38:47;8.27;;;6.07;;
55222;SDS011;41090;48.632;12.428;2022-07-10T04:41:15;5.77;;;5.17;;
55222;SDS011;41090;48.632;12.428;2022-07-10T04:43:40;7.47;;;5.73;;
55222;SDS011;41090;48.632;12.428;2022-07-10T04:46:06;7.00;;;5.33;;
55222;SDS011;41090;48.632;12.428;2022-07-10T04:48:32;6.80;;;5.47;;
55222;SDS011;41090;48.632;12.428;2022-07-10T04:51:04;6.20;;;5.60;;
55222;SDS011;41090;48.632;12.428;2022-07-10T04:53:29;5.90;;;5.40;;
55222;SDS011;41090;48.632;12.428;2022-07-10T04:55:57;7.40;;;5.87;;
55222;SDS011;41090;48.632;12.428;2022-07-10T04:58:23;6.37;;;5.10;;
55222;SDS011;41090;48.632;12.428;2022-07-10T05:00:48;5.67;;;5.17;;
55222;SDS011;41090;48.632;12.428;2022-07-10T05:03:14;5.40;;;4.80;;
55222;SDS011;41090;48.632;12.428;2022-07-10T05:05:40;5.33;;;4.83;;
55222;SDS011;41090;48.632;12.428;2022-07-10T05:08:06;5.10;;;4.60;;
55222;SDS011;41090;48.632;12.428;2022-07-10T05:10:31;4.73;;;4.33;;
55222;SDS011;41090;48.632;12.428;2022-07-10T05:12:56;4.67;;;4.27;;
55222;SDS011;41090;48.632;12.428;2022-07-10T05:15:22;4.40;;;3.83;;
55222;SDS011;41090;48.632;12.428;2022-07-10T05:17:47;5.10;;;4.10;;
55222;SDS011;41090;48.632;12.428;2022-07-10T05:20:12;4.43;;;4.00;;
55222;SDS011;41090;48.632;12.428;2022-07-10T05:22:38;6.43;;;4.20;;
55222;SDS011;41090;48.632;12.428;2022-07-10T05:25:03;3.80;;;3.40;;
55222;SDS011;41090;48.632;12.428;2022-07-10T05:27:28;3.50;;;3.30;;
55222;SDS011;41090;48.632;12.428;2022-07-10T05:29:53;4.00;;;3.40;;
55222;SDS011;41090;48.632;12.428;2022-07-10T05:32:19;3.97;;;3.30;;
55222;SDS011;41090;48.632;12.428;2022-07-10T05:34:44;4.07;;;3.67;;
55222;SDS011;41090;48.632;12.428;2022-07-10T05:37:09;4.40;;;3.30;;
55222;SDS011;41090;48.632;12.428;2022-07-10T05:39:34;4.93;;;3.30;;
55222;SDS011;41090;48.632;12.428;2022-07-10T05:42:00;4.40;;;3.10;;
55222;SDS011;41090;48.632;12.428;2022-07-10T05:44:25;3.90;;;3.50;;
55222;SDS011;41090;48.632;12.428;2022-07-10T05:46:51;3.30;;;3.00;;
55222;SDS011;41090;48.632;12.428;2022-07-10T05:49:16;3.80;;;3.20;;
55222;SDS011;41090;48.632;12.428;2022-07-10T05:51:42;4.33;;;3.10;;
55222;SDS011;41090;48.632;12.428;2022-07-10T05:54:07;3.57;;;3.20;;
55222;SDS011;41090;48.632;12.428;2022-07-10T05:56:35;4.67;;;3.00;;
55222;SDS011;41090;48.632;12.428;2022-07-10T05:59:00;3.63;;;3.00;;
55222;SDS011;41090;48.632;12.428;2022-07-10T06:01:25;3.83;;;3.20;;
55222;SDS011;41090;48.632;12.428;2022-07-10T06:03:53;3.10;;;2.80;;
55222;SDS011;41090;48.632;12.428;2022-07-10T06:06:19;4.23;;;3.03;;
55222;SDS011;41090;48.632;12.428;2022-07-10T06:08:44;4.20;;;3.00;;
55222;SDS011;41090;48.632;12.428;2022-07-10T06:11:10;4.40;;;3.20;;
55222;SDS011;41090;48.632;12.428;2022-07-10T06:13:35;4.27;;;2.80;;
55222;SDS011;41090;48.632;12.428;2022-07-10T06:16:00;2.83;;;2.63;;
55222;SDS011;41090;48.632;12.428;2022-07-10T06:18:26;5.83;;;2.90;;
55222;SDS011;41090;48.632;12.428;2022-07-10T06:20:51;4.37;;;3.20;;
55222;SDS011;41090;48.632;12.428;2022-07-10T06:23:16;4.60;;;2.83;;
55222;SDS011;41090;48.632;12.428;2022-07-10T06:25:42;4.50;;;2.97;;
55222;SDS011;41090;48.632;12.428;2022-07-10T06:28:11;3.07;;;2.67;;
55222;SDS011;41090;48.632;12.428;2022-07-10T06:30:36;4.43;;;3.20;;
55222;SDS011;41090;48.632;12.428;2022-07-10T06:33:01;4.13;;;2.93;;
55222;SDS011;41090;48.632;12.428;2022-07-10T06:35:27;4.10;;;2.40;;
55222;SDS011;41090;48.632;12.428;2022-07-10T06:37:52;3.07;;;2.37;;
55222;SDS011;41090;48.632;12.428;2022-07-10T06:40:17;3.53;;;2.30;;
55222;SDS011;41090;48.632;12.428;2022-07-10T06:42:45;4.43;;;2.30;;
55222;SDS011;41090;48.632;12.428;2022-07-10T06:45:10;3.60;;;2.43;;
55222;SDS011;41090;48.632;12.428;2022-07-10T06:47:35;2.97;;;2.40;;
55222;SDS011;41090;48.632;12.428;2022-07-10T06:50:19;3.87;;;2.47;;
55222;SDS011;41090;48.632;12.428;2022-07-10T06:53:02;3.03;;;2.33;;
55222;SDS011;41090;48.632;12.428;2022-07-10T06:55:27;3.20;;;2.37;;
55222;SDS011;41090;48.632;12.428;2022-07-10T06:57:58;2.50;;;2.20;;
55222;SDS011;41090;48.632;12.428;2022-07-10T07:00:23;4.33;;;2.53;;
55222;SDS011;41090;48.632;12.428;2022-07-10T07:02:48;4.90;;;2.57;;
55222;SDS011;41090;48.632;12.428;2022-07-10T07:05:13;2.20;;;2.00;;
55222;SDS011;41090;48.632;12.428;2022-07-10T07:07:39;4.60;;;2.40;;
55222;SDS011;41090;48.632;12.428;2022-07-10T07:10:04;4.50;;;2.70;;
55222;SDS011;41090;48.632;12.428;2022-07-10T07:12:31;3.50;;;2.20;;
55222;SDS011;41090;48.632;12.428;2022-07-10T07:14:56;3.23;;;2.37;;
55222;SDS011;41090;48.632;12.428;2022-07-10T07:17:21;5.07;;;2.27;;
55222;SDS011;41090;48.632;12.428;2022-07-10T07:19:48;3.73;;;1.90;;
55222;SDS011;41090;48.632;12.428;2022-07-10T07:22:33;5.67;;;2.33;;
55222;SDS011;41090;48.632;12.428;2022-07-10T07:25:17;3.47;;;2.20;;
55222;SDS011;41090;48.632;12.428;2022-07-10T07:27:42;4.30;;;2.40;;
55222;SDS011;41090;48.632;12.428;2022-07-10T07:30:09;3.83;;;2.15;;
55222;SDS011;41090;48.632;12.428;2022-07-10T07:32:36;5.43;;;2.30;;
55222;SDS011;41090;48.632;12.428;2022-07-10T07:35:02;3.53;;;1.98;;
55222;SDS011;41090;48.632;12.428;2022-07-10T07:37:38;4.97;;;2.10;;
55222;SDS011;41090;48.632;12.428;2022-07-10T07:40:04;3.17;;;2.15;;
55222;SDS011;41090;48.632;12.428;2022-07-10T07:42:30;3.10;;;1.95;;
55222;SDS011;41090;48.632;12.428;2022-07-10T07:44:55;4.10;;;2.20;;
55222;SDS011;41090;48.632;12.428;2022-07-10T07:47:20;2.35;;;1.70;;
55222;SDS011;41090;48.632;12.428;2022-07-10T07:49:45;5.47;;;1.92;;
55222;SDS011;41090;48.632;12.428;2022-07-10T07:52:11;7.28;;;2.20;;
55222;SDS011;41090;48.632;12.428;2022-07-10T07:54:37;4.65;;;1.98;;
55222;SDS011;41090;48.632;12.428;2022-07-10T07:57:02;4.05;;;2.10;;
55222;SDS011;41090;48.632;12.428;2022-07-10T07:59:28;2.67;;;1.90;;
55222;SDS011;41090;48.632;12.428;2022-07-10T08:01:53;3.65;;;2.10;;
55222;SDS011;41090;48.632;12.428;2022-07-10T08:04:20;3.13;;;1.95;;
55222;SDS011;41090;48.632;12.428;2022-07-10T08:06:45;2.83;;;2.08;;
55222;SDS011;41090;48.632;12.428;2022-07-10T08:09:10;3.42;;;1.90;;
55222;SDS011;41090;48.632;12.428;2022-07-10T08:11:41;3.33;;;2.00;;
55222;SDS011;41090;48.632;12.428;2022-07-10T08:14:06;3.20;;;1.90;;
55222;SDS011;41090;48.632;12.428;2022-07-10T08:16:31;4.55;;;2.05;;
55222;SDS011;41090;48.632;12.428;2022-07-10T08:18:57;2.08;;;1.83;;
55222;SDS011;41090;48.632;12.428;2022-07-10T08:21:22;4.80;;;1.80;;
55222;SDS011;41090;48.632;12.428;2022-07-10T08:23:47;2.60;;;1.70;;
55222;SDS011;41090;48.632;12.428;2022-07-10T08:26:12;2.87;;;1.63;;
55222;SDS011;41090;48.632;12.428;2022-07-10T08:28:39;2.83;;;1.42;;
55222;SDS011;41090;48.632;12.428;2022-07-10T08:31:08;5.63;;;1.60;;
55222;SDS011;41090;48.632;12.428;2022-07-10T08:33:33;4.25;;;1.58;;
55222;SDS011;41090;48.632;12.428;2022-07-10T08:35:59;2.72;;;1.50;;
55222;SDS011;41090;48.632;12.428;2022-07-10T08:38:25;2.70;;;1.60;;
55222;SDS011;41090;48.632;12.428;2022-07-10T08:40:51;3.03;;;1.60;;
55222;SDS011;41090;48.632;12.428;2022-07-10T08:43:21;3.42;;;1.67;;
55222;SDS011;41090;48.632;12.428;2022-07-10T08:45:46;2.88;;;1.77;;
55222;SDS011;41090;48.632;12.428;2022-07-10T08:48:14;5.28;;;1.55;;
55222;SDS011;41090;48.632;12.428;2022-07-10T08:50:41;3.58;;;1.60;;
55222;SDS011;41090;48.632;12.428;2022-07-10T08:53:13;2.80;;;1.58;;
55222;SDS011;41090;48.632;12.428;2022-07-10T08:55:38;2.80;;;1.50;;
55222;SDS011;41090;48.632;12.428;2022-07-10T08:58:04;2.83;;;1.40;;
55222;SDS011;41090;48.632;12.428;2022-07-10T09:00:30;3.15;;;1.65;;
55222;SDS011;41090;48.632;12.428;2022-07-10T09:02:55;2.85;;;1.67;;
55222;SDS011;41090;48.632;12.428;2022-07-10T09:05:21;4.95;;;1.85;;
55222;SDS011;41090;48.632;12.428;2022-07-10T09:07:46;2.72;;;1.70;;
55222;SDS011;41090;48.632;12.428;2022-07-10T09:10:13;2.60;;;1.33;;
55222;SDS011;41090;48.632;12.428;2022-07-10T09:15:21;2.22;;;1.50;;
55222;SDS011;41090;48.632;12.428;2022-07-10T09:18:01;3.72;;;1.75;;
55222;SDS011;41090;48.632;12.428;2022-07-10T09:20:49;2.22;;;1.50;;
55222;SDS011;41090;48.632;12.428;2022-07-10T09:23:21;3.22;;;1.80;;
55222;SDS011;41090;48.632;12.428;2022-07-10T09:25:48;3.03;;;1.88;;
55222;SDS011;41090;48.632;12.428;2022-07-10T09:28:15;2.70;;;1.52;;
55222;SDS011;41090;48.632;12.428;2022-07-10T09:30:41;1.52;;;1.13;;
55222;SDS011;41090;48.632;12.428;2022-07-10T09:41:23;2.35;;;1.40;;
55222;SDS011;41090;48.632;12.428;2022-07-10T09:46:21;3.13;;;1.33;;
55222;SDS011;41090;48.632;12.428;2022-07-10T09:48:47;2.42;;;1.50;;
55222;SDS011;41090;48.632;12.428;2022-07-10T09:51:12;2.67;;;1.30;;
55222;SDS011;41090;48.632;12.428;2022-07-10T09:53:39;2.25;;;1.30;;
55222;SDS011;41090;48.632;12.428;2022-07-10T09:56:05;2.60;;;1.33;;
55222;SDS011;41090;48.632;12.428;2022-07-10T09:58:31;1.48;;;1.20;;
55222;SDS011;41090;48.632;12.428;2022-07-10T10:00:58;1.58;;;1.05;;
55222;SDS011;41090;48.632;12.428;2022-07-10T10:03:23;2.33;;;1.83;;
55222;SDS011;41090;48.632;12.428;2022-07-10T10:05:53;2.40;;;1.20;;
55222;SDS011;41090;48.632;12.428;2022-07-10T10:08:21;3.10;;;1.20;;
55222;SDS011;41090;48.632;12.428;2022-07-10T10:10:48;1.88;;;1.40;;
55222;SDS011;41090;48.632;12.428;2022-07-10T10:13:15;1.63;;;1.20;;
55222;SDS011;41090;48.632;12.428;2022-07-10T10:15:41;1.90;;;1.30;;
55222;SDS011;41090;48.632;12.428;2022-07-10T10:18:07;4.13;;;1.20;;
55222;SDS011;41090;48.632;12.428;2022-07-10T10:20:33;1.75;;;1.20;;
55222;SDS011;41090;48.632;12.428;2022-07-10T10:23:03;2.42;;;1.30;;
55222;SDS011;41090;48.632;12.428;2022-07-10T10:25:28;1.85;;;1.20;;
55222;SDS011;41090;48.632;12.428;2022-07-10T10:27:56;2.63;;;1.40;;
55222;SDS011;41090;48.632;12.428;2022-07-10T10:30:22;2.03;;;1.10;;
55222;SDS011;41090;48.632;12.428;2022-07-10T10:32:47;5.20;;;1.40;;
55222;SDS011;41090;48.632;12.428;2022-07-10T10:35:41;2.73;;;1.20;;
55222;SDS011;41090;48.632;12.428;2022-07-10T10:38:01;2.25;;;1.17;;
55222;SDS011;41090;48.632;12.428;2022-07-10T10:40:30;1.97;;;1.20;;
55222;SDS011;41090;48.632;12.428;2022-07-10T10:48:12;1.10;;;0.88;;
55222;SDS011;41090;48.632;12.428;2022-07-10T10:53:28;2.20;;;1.08;;
55222;SDS011;41090;48.632;12.428;2022-07-10T10:58:25;2.03;;;1.27;;
55222;SDS011;41090;48.632;12.428;2022-07-10T11:00:50;2.33;;;1.30;;
55222;SDS011;41090;48.632;12.428;2022-07-10T11:03:20;2.20;;;1.40;;
55222;SDS011;41090;48.632;12.428;2022-07-10T11:05:46;4.22;;;1.13;;
55222;SDS011;41090;48.632;12.428;2022-07-10T11:08:11;1.67;;;1.30;;
55222;SDS011;41090;48.632;12.428;2022-07-10T11:10:41;2.60;;;1.30;;
55222;SDS011;41090;48.632;12.428;2022-07-10T11:15:36;1.48;;;1.00;;
55222;SDS011;41090;48.632;12.428;2022-07-10T11:18:09;1.20;;;1.10;;
55222;SDS011;41090;48.632;12.428;2022-07-10T11:20:35;2.47;;;1.20;;
55222;SDS011;41090;48.632;12.428;2022-07-10T11:23:06;2.67;;;1.10;;
55222;SDS011;41090;48.632;12.428;2022-07-10T11:30:42;1.98;;;1.27;;
55222;SDS011;41090;48.632;12.428;2022-07-10T11:33:07;4.75;;;1.38;;
55222;SDS011;41090;48.632;12.428;2022-07-10T11:35:33;1.95;;;1.20;;
55222;SDS011;41090;48.632;12.428;2022-07-10T11:37:58;2.28;;;1.10;;
55222;SDS011;41090;48.632;12.428;2022-07-10T11:40:23;3.00;;;1.20;;
55222;SDS011;41090;48.632;12.428;2022-07-10T11:42:57;5.57;;;1.20;;
55222;SDS011;41090;48.632;12.428;2022-07-10T11:45:25;2.90;;;1.35;;
55222;SDS011;41090;48.632;12.428;2022-07-10T11:47:50;3.78;;;1.25;;
55222;SDS011;41090;48.632;12.428;2022-07-10T11:50:15;2.57;;;1.33;;
55222;SDS011;41090;48.632;12.428;2022-07-10T11:52:41;1.30;;;1.20;;
55222;SDS011;41090;48.632;12.428;2022-07-10T11:55:15;2.00;;;1.27;;
55222;SDS011;41090;48.632;12.428;2022-07-10T11:57:41;1.33;;;1.20;;
55222;SDS011;41090;48.632;12.428;2022-07-10T12:00:07;2.35;;;1.42;;
55222;SDS011;41090;48.632;12.428;2022-07-10T12:02:45;2.80;;;1.40;;
55222;SDS011;41090;48.632;12.428;2022-07-10T12:05:28;2.13;;;1.10;;
55222;SDS011;41090;48.632;12.428;2022-07-10T12:07:54;2.15;;;1.20;;
55222;SDS011;41090;48.632;12.428;2022-07-10T12:10:20;2.40;;;1.30;;
55222;SDS011;41090;48.632;12.428;2022-07-10T12:12:45;1.40;;;1.10;;
55222;SDS011;41090;48.632;12.428;2022-07-10T12:15:11;2.42;;;1.20;;
55222;SDS011;41090;48.632;12.428;2022-07-10T12:17:55;2.75;;;1.30;;
55222;SDS011;41090;48.632;12.428;2022-07-10T12:20:20;1.95;;;1.20;;
55222;SDS011;41090;48.632;12.428;2022-07-10T12:22:45;2.05;;;1.20;;
55222;SDS011;41090;48.632;12.428;2022-07-10T12:25:10;2.88;;;1.40;;
55222;SDS011;41090;48.632;12.428;2022-07-10T12:27:39;4.57;;;1.30;;
55222;SDS011;41090;48.632;12.428;2022-07-10T12:30:05;1.77;;;1.10;;
55222;SDS011;41090;48.632;12.428;2022-07-10T12:32:30;2.42;;;1.20;;
55222;SDS011;41090;48.632;12.428;2022-07-10T12:34:57;1.63;;;1.00;;
55222;SDS011;41090;48.632;12.428;2022-07-10T12:37:24;3.78;;;1.20;;
55222;SDS011;41090;48.632;12.428;2022-07-10T12:39:50;2.78;;;1.40;;
55222;SDS011;41090;48.632;12.428;2022-07-10T12:42:30;2.00;;;1.20;;
55222;SDS011;41090;48.632;12.428;2022-07-10T12:47:54;3.80;;;1.45;;
55222;SDS011;41090;48.632;12.428;2022-07-10T12:50:19;2.22;;;1.00;;
55222;SDS011;41090;48.632;12.428;2022-07-10T12:52:45;2.20;;;1.20;;
55222;SDS011;41090;48.632;12.428;2022-07-10T13:00:27;2.38;;;1.08;;
55222;SDS011;41090;48.632;12.428;2022-07-10T13:02:58;2.78;;;1.10;;
55222;SDS011;41090;48.632;12.428;2022-07-10T13:05:34;2.05;;;1.27;;
55222;SDS011;41090;48.632;12.428;2022-07-10T13:08:07;3.85;;;1.20;;
55222;SDS011;41090;48.632;12.428;2022-07-10T13:10:33;1.48;;;1.00;;
55222;SDS011;41090;48.632;12.428;2022-07-10T13:12:59;5.20;;;1.20;;
55222;SDS011;41090;48.632;12.428;2022-07-10T13:15:24;1.83;;;1.00;;
55222;SDS011;41090;48.632;12.428;2022-07-10T13:17:50;1.45;;;1.05;;
55222;SDS011;41090;48.632;12.428;2022-07-10T13:20:15;2.08;;;1.10;;
55222;SDS011;41090;48.632;12.428;2022-07-10T13:22:41;1.52;;;1.00;;
55222;SDS011;41090;48.632;12.428;2022-07-10T13:25:06;1.17;;;0.90;;
55222;SDS011;41090;48.632;12.428;2022-07-10T13:27:31;1.75;;;1.10;;
55222;SDS011;41090;48.632;12.428;2022-07-10T13:29:57;1.52;;;1.00;;
55222;SDS011;41090;48.632;12.428;2022-07-10T13:32:22;2.72;;;1.20;;
55222;SDS011;41090;48.632;12.428;2022-07-10T13:34:48;1.40;;;1.00;;
55222;SDS011;41090;48.632;12.428;2022-07-10T13:37:13;4.35;;;1.10;;
55222;SDS011;41090;48.632;12.428;2022-07-10T13:39:39;1.63;;;1.02;;
55222;SDS011;41090;48.632;12.428;2022-07-10T13:42:04;1.33;;;1.05;;
55222;SDS011;41090;48.632;12.428;2022-07-10T13:44:30;2.40;;;1.00;;
55222;SDS011;41090;48.632;12.428;2022-07-10T13:46:55;1.83;;;0.93;;
55222;SDS011;41090;48.632;12.428;2022-07-10T13:49:21;2.80;;;1.08;;
55222;SDS011;41090;48.632;12.428;2022-07-10T13:51:47;1.58;;;1.13;;
55222;SDS011;41090;48.632;12.428;2022-07-10T13:54:12;2.22;;;1.00;;
55222;SDS011;41090;48.632;12.428;2022-07-10T13:56:38;3.63;;;1.20;;
55222;SDS011;41090;48.632;12.428;2022-07-10T13:59:03;1.58;;;1.00;;
55222;SDS011;41090;48.632;12.428;2022-07-10T14:01:28;2.42;;;1.10;;
55222;SDS011;41090;48.632;12.428;2022-07-10T14:03:54;3.80;;;1.10;;
55222;SDS011;41090;48.632;12.428;2022-07-10T14:06:19;1.23;;;0.90;;
55222;SDS011;41090;48.632;12.428;2022-07-10T14:08:45;1.65;;;1.00;;
55222;SDS011;41090;48.632;12.428;2022-07-10T14:11:10;2.05;;;1.10;;
55222;SDS011;41090;48.632;12.428;2022-07-10T14:13:35;1.20;;;0.93;;
55222;SDS011;41090;48.632;12.428;2022-07-10T14:16:01;1.35;;;0.95;;
55222;SDS011;41090;48.632;12.428;2022-07-10T14:18:27;2.35;;;1.10;;
55222;SDS011;41090;48.632;12.428;2022-07-10T14:21:07;1.75;;;1.00;;
55222;SDS011;41090;48.632;12.428;2022-07-10T14:23:33;1.95;;;1.13;;
55222;SDS011;41090;48.632;12.428;2022-07-10T14:25:59;1.35;;;0.90;;
55222;SDS011;41090;48.632;12.428;2022-07-10T14:28:24;1.45;;;1.10;;
55222;SDS011;41090;48.632;12.428;2022-07-10T14:30:50;1.40;;;1.10;;
55222;SDS011;41090;48.632;12.428;2022-07-10T14:33:16;1.48;;;1.00;;
55222;SDS011;41090;48.632;12.428;2022-07-10T14:35:42;1.33;;;0.90;;
55222;SDS011;41090;48.632;12.428;2022-07-10T14:38:07;1.70;;;0.90;;
55222;SDS011;41090;48.632;12.428;2022-07-10T14:40:32;2.33;;;1.20;;
55222;SDS011;41090;48.632;12.428;2022-07-10T14:42:58;1.97;;;1.10;;
55222;SDS011;41090;48.632;12.428;2022-07-10T14:45:23;0.90;;;0.90;;
55222;SDS011;41090;48.632;12.428;2022-07-10T14:47:49;2.27;;;1.00;;
55222;SDS011;41090;48.632;12.428;2022-07-10T14:50:14;1.57;;;0.97;;
55222;SDS011;41090;48.632;12.428;2022-07-10T14:52:41;3.20;;;1.10;;
55222;SDS011;41090;48.632;12.428;2022-07-10T14:55:06;1.83;;;0.80;;
55222;SDS011;41090;48.632;12.428;2022-07-10T14:57:32;1.03;;;0.90;;
55222;SDS011;41090;48.632;12.428;2022-07-10T14:59:58;1.13;;;0.80;;
55222;SDS011;41090;48.632;12.428;2022-07-10T15:02:23;1.50;;;1.00;;
55222;SDS011;41090;48.632;12.428;2022-07-10T15:04:48;2.23;;;1.20;;
55222;SDS011;41090;48.632;12.428;2022-07-10T15:07:13;1.40;;;0.90;;
55222;SDS011;41090;48.632;12.428;2022-07-10T15:09:42;1.07;;;0.90;;